sensor_id;sensor_type;location;lat;lon;timestamp;temperature;humidity
3912;DHT22;1971;51.778;10.330;2023-03-13T00:02:31;5.30;99.90
3912;DHT22;1971;51.778;10.330;2023-03-13T00:05:00;5.00;99.90
3912;DHT22;1971;51.778;10.330;2023-03-13T00:07:31;5.10;99.90
3912;DHT22;1971;51.778;10.330;2023-03-13T00:10:02;5.20;99.90
3912;DHT22;1971;51.778;10.330;2023-03-13T00:12:32;4.80;99.90
3912;DHT22;1971;51.778;10.330;2023-03-13T00:15:05;4.80;99.90
3912;DHT22;1971;51.778;10.330;2023-03-13T00:17:36;4.90;99.90
3912;DHT22;1971;51.778;10.330;2023-03-13T00:20:08;4.90;99.90
3912;DHT22;1971;51.778;10.330;2023-03-13T00:22:38;5.20;99.90
3912;DHT22;1971;51.778;10.330;2023-03-13T00:25:08;5.00;99.90
3912;DHT22;1971;51.778;10.330;2023-03-13T00:27:38;5.20;99.90
3912;DHT22;1971;51.778;10.330;2023-03-13T00:30:12;5.20;99.90
3912;DHT22;1971;51.778;10.330;2023-03-13T00:32:44;5.20;99.90
3912;DHT22;1971;51.778;10.330;2023-03-13T00:35:15;5.00;99.90
3912;DHT22;1971;51.778;10.330;2023-03-13T00:37:46;5.10;99.90
3912;DHT22;1971;51.778;10.330;2023-03-13T00:40:17;4.90;99.90
3912;DHT22;1971;51.778;10.330;2023-03-13T00:42:47;5.20;99.90
3912;DHT22;1971;51.778;10.330;2023-03-13T00:45:20;4.90;99.90
3912;DHT22;1971;51.778;10.330;2023-03-13T00:47:50;5.10;99.90
3912;DHT22;1971;51.778;10.330;2023-03-13T00:50:20;5.00;99.90
3912;DHT22;1971;51.778;10.330;2023-03-13T00:52:50;5.20;99.90
3912;DHT22;1971;51.778;10.330;2023-03-13T00:55:20;5.20;99.90
3912;DHT22;1971;51.778;10.330;2023-03-13T00:57:50;5.00;99.90
3912;DHT22;1971;51.778;10.330;2023-03-13T01:00:23;4.90;99.90
3912;DHT22;1971;51.778;10.330;2023-03-13T01:02:53;4.70;99.90
3912;DHT22;1971;51.778;10.330;2023-03-13T01:05:25;4.90;99.90
3912;DHT22;1971;51.778;10.330;2023-03-13T01:07:57;4.80;99.90
3912;DHT22;1971;51.778;10.330;2023-03-13T01:10:27;5.20;99.90
3912;DHT22;1971;51.778;10.330;2023-03-13T01:12:58;5.20;99.90
3912;DHT22;1971;51.778;10.330;2023-03-13T01:15:33;5.10;99.90
3912;DHT22;1971;51.778;10.330;2023-03-13T01:18:03;5.20;99.90
3912;DHT22;1971;51.778;10.330;2023-03-13T01:20:34;5.10;99.90
3912;DHT22;1971;51.778;10.330;2023-03-13T01:23:07;5.00;99.90
3912;DHT22;1971;51.778;10.330;2023-03-13T01:25:37;5.30;99.90
3912;DHT22;1971;51.778;10.330;2023-03-13T01:28:07;5.00;99.90
3912;DHT22;1971;51.778;10.330;2023-03-13T01:30:40;5.30;99.90
3912;DHT22;1971;51.778;10.330;2023-03-13T01:33:10;5.10;99.90
3912;DHT22;1971;51.778;10.330;2023-03-13T01:35:41;5.10;99.90
3912;DHT22;1971;51.778;10.330;2023-03-13T01:38:12;4.70;99.90
3912;DHT22;1971;51.778;10.330;2023-03-13T01:40:44;4.90;99.90
3912;DHT22;1971;51.778;10.330;2023-03-13T01:43:18;4.80;99.90
3912;DHT22;1971;51.778;10.330;2023-03-13T01:46:03;5.00;99.90
3912;DHT22;1971;51.778;10.330;2023-03-13T01:48:51;4.70;99.90
3912;DHT22;1971;51.778;10.330;2023-03-13T01:51:24;4.80;99.90
3912;DHT22;1971;51.778;10.330;2023-03-13T01:54:02;5.20;99.90
3912;DHT22;1971;51.778;10.330;2023-03-13T01:56:38;4.90;99.90
3912;DHT22;1971;51.778;10.330;2023-03-13T01:59:12;4.90;99.90
3912;DHT22;1971;51.778;10.330;2023-03-13T02:01:46;4.80;99.90
3912;DHT22;1971;51.778;10.330;2023-03-13T02:04:20;4.80;99.90
3912;DHT22;1971;51.778;10.330;2023-03-13T02:06:54;4.70;99.90
3912;DHT22;1971;51.778;10.330;2023-03-13T02:09:27;5.10;99.90
3912;DHT22;1971;51.778;10.330;2023-03-13T02:12:03;5.20;99.90
3912;DHT22;1971;51.778;10.330;2023-03-13T02:14:38;5.00;99.90
3912;DHT22;1971;51.778;10.330;2023-03-13T02:17:13;5.20;99.90
3912;DHT22;1971;51.778;10.330;2023-03-13T02:19:45;5.20;99.90
3912;DHT22;1971;51.778;10.330;2023-03-13T02:22:23;5.00;99.90
3912;DHT22;1971;51.778;10.330;2023-03-13T02:25:01;5.00;99.90
3912;DHT22;1971;51.778;10.330;2023-03-13T02:27:38;5.00;99.90
3912;DHT22;1971;51.778;10.330;2023-03-13T02:30:10;4.90;99.90
3912;DHT22;1971;51.778;10.330;2023-03-13T02:32:40;4.90;99.90
3912;DHT22;1971;51.778;10.330;2023-03-13T02:35:16;5.20;99.90
3912;DHT22;1971;51.778;10.330;2023-03-13T02:37:50;5.10;99.90
3912;DHT22;1971;51.778;10.330;2023-03-13T02:40:24;5.00;99.90
3912;DHT22;1971;51.778;10.330;2023-03-13T02:43:00;5.20;99.90
3912;DHT22;1971;51.778;10.330;2023-03-13T02:45:31;5.10;99.90
3912;DHT22;1971;51.778;10.330;2023-03-13T02:48:01;5.10;99.90
3912;DHT22;1971;51.778;10.330;2023-03-13T02:50:31;5.10;99.90
3912;DHT22;1971;51.778;10.330;2023-03-13T02:53:06;5.20;99.90
3912;DHT22;1971;51.778;10.330;2023-03-13T02:55:39;5.10;99.90
3912;DHT22;1971;51.778;10.330;2023-03-13T02:58:41;5.10;99.90
3912;DHT22;1971;51.778;10.330;2023-03-13T03:01:19;5.10;99.90
3912;DHT22;1971;51.778;10.330;2023-03-13T03:03:50;5.20;99.90
3912;DHT22;1971;51.778;10.330;2023-03-13T03:06:23;5.20;99.90
3912;DHT22;1971;51.778;10.330;2023-03-13T03:08:54;5.40;99.90
3912;DHT22;1971;51.778;10.330;2023-03-13T03:11:27;5.10;99.90
3912;DHT22;1971;51.778;10.330;2023-03-13T03:14:04;5.20;99.90
3912;DHT22;1971;51.778;10.330;2023-03-13T03:16:38;5.10;99.90
3912;DHT22;1971;51.778;10.330;2023-03-13T03:19:09;5.10;99.90
3912;DHT22;1971;51.778;10.330;2023-03-13T03:21:39;5.00;99.90
3912;DHT22;1971;51.778;10.330;2023-03-13T03:24:09;5.30;99.90
3912;DHT22;1971;51.778;10.330;2023-03-13T03:26:40;5.10;99.90
3912;DHT22;1971;51.778;10.330;2023-03-13T03:29:20;5.10;99.90
3912;DHT22;1971;51.778;10.330;2023-03-13T03:31:53;5.30;99.90
3912;DHT22;1971;51.778;10.330;2023-03-13T03:34:24;5.30;99.90
3912;DHT22;1971;51.778;10.330;2023-03-13T03:36:55;5.10;99.90
3912;DHT22;1971;51.778;10.330;2023-03-13T03:39:27;5.20;99.90
3912;DHT22;1971;51.778;10.330;2023-03-13T03:41:59;5.00;99.90
3912;DHT22;1971;51.778;10.330;2023-03-13T03:44:33;5.10;99.90
3912;DHT22;1971;51.778;10.330;2023-03-13T03:47:05;5.20;99.90
3912;DHT22;1971;51.778;10.330;2023-03-13T03:49:40;5.20;99.90
3912;DHT22;1971;51.778;10.330;2023-03-13T03:52:14;5.20;99.90
3912;DHT22;1971;51.778;10.330;2023-03-13T03:54:44;5.30;99.90
3912;DHT22;1971;51.778;10.330;2023-03-13T03:57:16;5.50;99.90
3912;DHT22;1971;51.778;10.330;2023-03-13T03:59:50;5.60;99.90
3912;DHT22;1971;51.778;10.330;2023-03-13T04:02:21;5.50;99.90
3912;DHT22;1971;51.778;10.330;2023-03-13T04:04:51;5.40;99.90
3912;DHT22;1971;51.778;10.330;2023-03-13T04:07:27;5.40;99.90
3912;DHT22;1971;51.778;10.330;2023-03-13T04:09:58;5.60;99.90
3912;DHT22;1971;51.778;10.330;2023-03-13T04:12:38;5.50;99.90
3912;DHT22;1971;51.778;10.330;2023-03-13T04:15:11;5.50;99.90
3912;DHT22;1971;51.778;10.330;2023-03-13T04:17:41;5.30;99.90
3912;DHT22;1971;51.778;10.330;2023-03-13T04:20:12;5.40;99.90
3912;DHT22;1971;51.778;10.330;2023-03-13T04:22:42;5.60;99.90
3912;DHT22;1971;51.778;10.330;2023-03-13T04:25:13;5.60;99.90
3912;DHT22;1971;51.778;10.330;2023-03-13T04:27:43;5.60;99.90
3912;DHT22;1971;51.778;10.330;2023-03-13T04:30:16;5.40;99.90
3912;DHT22;1971;51.778;10.330;2023-03-13T04:33:05;5.50;99.90
3912;DHT22;1971;51.778;10.330;2023-03-13T04:35:43;5.50;99.90
3912;DHT22;1971;51.778;10.330;2023-03-13T04:38:23;5.40;99.90
3912;DHT22;1971;51.778;10.330;2023-03-13T04:41:06;5.50;99.90
3912;DHT22;1971;51.778;10.330;2023-03-13T04:44:02;5.60;99.90
3912;DHT22;1971;51.778;10.330;2023-03-13T04:46:55;5.40;99.90
3912;DHT22;1971;51.778;10.330;2023-03-13T04:49:44;5.30;99.90
3912;DHT22;1971;51.778;10.330;2023-03-13T04:52:24;5.30;99.90
3912;DHT22;1971;51.778;10.330;2023-03-13T04:54:57;5.30;99.90
3912;DHT22;1971;51.778;10.330;2023-03-13T04:58:02;5.30;99.90
3912;DHT22;1971;51.778;10.330;2023-03-13T05:00:41;5.50;99.90
3912;DHT22;1971;51.778;10.330;2023-03-13T05:03:26;5.30;99.90
3912;DHT22;1971;51.778;10.330;2023-03-13T05:06:08;5.30;99.90
3912;DHT22;1971;51.778;10.330;2023-03-13T05:08:38;5.60;99.90
3912;DHT22;1971;51.778;10.330;2023-03-13T05:11:27;5.50;99.90
3912;DHT22;1971;51.778;10.330;2023-03-13T05:14:16;5.40;99.90
3912;DHT22;1971;51.778;10.330;2023-03-13T05:16:58;5.10;99.90
3912;DHT22;1971;51.778;10.330;2023-03-13T05:19:51;5.10;99.90
3912;DHT22;1971;51.778;10.330;2023-03-13T05:22:47;5.40;99.90
3912;DHT22;1971;51.778;10.330;2023-03-13T05:25:46;5.40;99.90
3912;DHT22;1971;51.778;10.330;2023-03-13T05:28:37;5.60;99.90
3912;DHT22;1971;51.778;10.330;2023-03-13T05:31:16;5.30;99.90
3912;DHT22;1971;51.778;10.330;2023-03-13T05:34:12;5.30;99.90
3912;DHT22;1971;51.778;10.330;2023-03-13T05:37:17;5.30;99.90
3912;DHT22;1971;51.778;10.330;2023-03-13T05:40:25;5.30;99.90
3912;DHT22;1971;51.778;10.330;2023-03-13T05:43:15;5.40;99.90
3912;DHT22;1971;51.778;10.330;2023-03-13T05:46:05;5.60;99.90
3912;DHT22;1971;51.778;10.330;2023-03-13T05:48:47;5.50;99.90
3912;DHT22;1971;51.778;10.330;2023-03-13T05:51:34;5.40;99.90
3912;DHT22;1971;51.778;10.330;2023-03-13T05:54:26;5.40;99.90
3912;DHT22;1971;51.778;10.330;2023-03-13T05:57:14;5.50;99.90
3912;DHT22;1971;51.778;10.330;2023-03-13T05:59:54;5.50;99.90
3912;DHT22;1971;51.778;10.330;2023-03-13T06:02:56;5.50;99.90
3912;DHT22;1971;51.778;10.330;2023-03-13T06:05:32;5.50;99.90
3912;DHT22;1971;51.778;10.330;2023-03-13T06:08:06;5.40;99.90
3912;DHT22;1971;51.778;10.330;2023-03-13T06:10:39;5.50;99.90
3912;DHT22;1971;51.778;10.330;2023-03-13T06:13:09;5.40;99.90
3912;DHT22;1971;51.778;10.330;2023-03-13T06:15:51;5.60;99.90
3912;DHT22;1971;51.778;10.330;2023-03-13T06:18:45;5.60;99.90
3912;DHT22;1971;51.778;10.330;2023-03-13T06:21:15;5.70;99.90
3912;DHT22;1971;51.778;10.330;2023-03-13T06:23:44;5.80;99.90
3912;DHT22;1971;51.778;10.330;2023-03-13T06:26:17;5.80;99.90
3912;DHT22;1971;51.778;10.330;2023-03-13T06:28:48;5.90;99.90
3912;DHT22;1971;51.778;10.330;2023-03-13T06:31:18;5.80;99.90
3912;DHT22;1971;51.778;10.330;2023-03-13T06:33:52;6.20;99.90
3912;DHT22;1971;51.778;10.330;2023-03-13T06:36:24;6.20;99.90
3912;DHT22;1971;51.778;10.330;2023-03-13T06:38:56;6.10;99.90
3912;DHT22;1971;51.778;10.330;2023-03-13T06:41:29;6.10;99.90
3912;DHT22;1971;51.778;10.330;2023-03-13T06:43:59;6.30;99.90
3912;DHT22;1971;51.778;10.330;2023-03-13T06:46:29;6.20;99.90
3912;DHT22;1971;51.778;10.330;2023-03-13T06:49:00;6.20;99.90
3912;DHT22;1971;51.778;10.330;2023-03-13T06:51:32;6.10;99.90
3912;DHT22;1971;51.778;10.330;2023-03-13T06:54:02;6.40;99.90
3912;DHT22;1971;51.778;10.330;2023-03-13T06:56:35;6.70;99.90
3912;DHT22;1971;51.778;10.330;2023-03-13T06:59:05;6.20;99.90
3912;DHT22;1971;51.778;10.330;2023-03-13T07:01:35;6.40;99.90
3912;DHT22;1971;51.778;10.330;2023-03-13T07:04:05;6.70;99.90
3912;DHT22;1971;51.778;10.330;2023-03-13T07:06:34;6.50;99.90
3912;DHT22;1971;51.778;10.330;2023-03-13T07:09:05;6.50;99.90
3912;DHT22;1971;51.778;10.330;2023-03-13T07:11:38;6.50;99.90
3912;DHT22;1971;51.778;10.330;2023-03-13T07:14:08;6.40;99.90
3912;DHT22;1971;51.778;10.330;2023-03-13T07:16:43;6.50;99.90
3912;DHT22;1971;51.778;10.330;2023-03-13T07:19:14;6.40;99.90
3912;DHT22;1971;51.778;10.330;2023-03-13T07:21:44;6.50;99.90
3912;DHT22;1971;51.778;10.330;2023-03-13T07:24:16;6.50;99.90
3912;DHT22;1971;51.778;10.330;2023-03-13T07:26:48;6.60;99.90
3912;DHT22;1971;51.778;10.330;2023-03-13T07:29:32;6.70;99.90
3912;DHT22;1971;51.778;10.330;2023-03-13T07:32:02;6.70;99.90
3912;DHT22;1971;51.778;10.330;2023-03-13T07:34:32;6.60;99.90
3912;DHT22;1971;51.778;10.330;2023-03-13T07:37:03;6.50;99.90
3912;DHT22;1971;51.778;10.330;2023-03-13T07:39:33;6.60;99.90
3912;DHT22;1971;51.778;10.330;2023-03-13T07:42:06;6.90;99.90
3912;DHT22;1971;51.778;10.330;2023-03-13T07:44:35;7.10;99.90
3912;DHT22;1971;51.778;10.330;2023-03-13T07:47:08;6.70;99.90
3912;DHT22;1971;51.778;10.330;2023-03-13T07:49:38;6.90;99.90
3912;DHT22;1971;51.778;10.330;2023-03-13T07:52:09;6.90;99.90
3912;DHT22;1971;51.778;10.330;2023-03-13T07:54:40;7.00;99.90
3912;DHT22;1971;51.778;10.330;2023-03-13T07:57:12;7.00;99.90
3912;DHT22;1971;51.778;10.330;2023-03-13T07:59:42;6.90;99.90
3912;DHT22;1971;51.778;10.330;2023-03-13T08:02:14;6.80;99.90
3912;DHT22;1971;51.778;10.330;2023-03-13T08:04:45;7.40;99.90
3912;DHT22;1971;51.778;10.330;2023-03-13T08:07:15;7.20;99.90
3912;DHT22;1971;51.778;10.330;2023-03-13T08:09:45;7.00;99.90
3912;DHT22;1971;51.778;10.330;2023-03-13T08:12:18;6.90;99.90
3912;DHT22;1971;51.778;10.330;2023-03-13T08:14:48;7.10;99.90
3912;DHT22;1971;51.778;10.330;2023-03-13T08:17:18;7.20;99.90
3912;DHT22;1971;51.778;10.330;2023-03-13T08:19:48;7.00;99.90
3912;DHT22;1971;51.778;10.330;2023-03-13T08:22:18;7.50;99.90
3912;DHT22;1971;51.778;10.330;2023-03-13T08:24:48;7.30;99.90
3912;DHT22;1971;51.778;10.330;2023-03-13T08:27:22;7.20;99.90
3912;DHT22;1971;51.778;10.330;2023-03-13T08:29:52;7.40;99.90
3912;DHT22;1971;51.778;10.330;2023-03-13T08:32:22;7.40;99.90
3912;DHT22;1971;51.778;10.330;2023-03-13T08:34:52;7.40;99.90
3912;DHT22;1971;51.778;10.330;2023-03-13T08:37:22;7.30;99.90
3912;DHT22;1971;51.778;10.330;2023-03-13T08:39:52;7.40;99.90
3912;DHT22;1971;51.778;10.330;2023-03-13T08:42:25;7.40;99.90
3912;DHT22;1971;51.778;10.330;2023-03-13T08:44:55;7.50;99.90
3912;DHT22;1971;51.778;10.330;2023-03-13T08:47:25;7.20;99.90
3912;DHT22;1971;51.778;10.330;2023-03-13T08:49:55;7.40;99.90
3912;DHT22;1971;51.778;10.330;2023-03-13T08:52:24;7.40;99.90
3912;DHT22;1971;51.778;10.330;2023-03-13T08:54:55;7.60;99.90
3912;DHT22;1971;51.778;10.330;2023-03-13T08:57:27;7.50;99.90
3912;DHT22;1971;51.778;10.330;2023-03-13T08:59:58;7.50;99.90
3912;DHT22;1971;51.778;10.330;2023-03-13T09:02:27;7.40;99.90
3912;DHT22;1971;51.778;10.330;2023-03-13T09:04:58;7.60;99.90
3912;DHT22;1971;51.778;10.330;2023-03-13T09:07:28;7.50;99.90
3912;DHT22;1971;51.778;10.330;2023-03-13T09:09:59;7.60;99.90
3912;DHT22;1971;51.778;10.330;2023-03-13T09:12:34;7.90;99.90
3912;DHT22;1971;51.778;10.330;2023-03-13T09:15:06;7.60;99.90
3912;DHT22;1971;51.778;10.330;2023-03-13T09:17:36;7.50;99.90
3912;DHT22;1971;51.778;10.330;2023-03-13T09:20:08;7.30;99.90
3912;DHT22;1971;51.778;10.330;2023-03-13T09:22:38;7.70;99.90
3912;DHT22;1971;51.778;10.330;2023-03-13T09:25:09;7.70;99.90
3912;DHT22;1971;51.778;10.330;2023-03-13T09:27:42;7.70;99.90
3912;DHT22;1971;51.778;10.330;2023-03-13T09:30:12;7.90;99.90
3912;DHT22;1971;51.778;10.330;2023-03-13T09:32:43;8.10;99.90
3912;DHT22;1971;51.778;10.330;2023-03-13T09:35:14;8.00;99.90
3912;DHT22;1971;51.778;10.330;2023-03-13T09:37:44;8.10;99.90
3912;DHT22;1971;51.778;10.330;2023-03-13T09:40:15;8.10;99.90
3912;DHT22;1971;51.778;10.330;2023-03-13T09:42:52;7.90;99.90
3912;DHT22;1971;51.778;10.330;2023-03-13T09:45:28;8.00;99.90
3912;DHT22;1971;51.778;10.330;2023-03-13T09:48:03;8.30;99.90
3912;DHT22;1971;51.778;10.330;2023-03-13T09:50:35;8.00;99.90
3912;DHT22;1971;51.778;10.330;2023-03-13T09:53:17;8.00;99.90
3912;DHT22;1971;51.778;10.330;2023-03-13T09:55:48;8.00;99.90
3912;DHT22;1971;51.778;10.330;2023-03-13T09:58:22;8.30;99.90
3912;DHT22;1971;51.778;10.330;2023-03-13T10:00:56;8.30;99.90
3912;DHT22;1971;51.778;10.330;2023-03-13T10:03:32;8.40;99.90
3912;DHT22;1971;51.778;10.330;2023-03-13T10:06:10;8.40;99.90
3912;DHT22;1971;51.778;10.330;2023-03-13T10:08:41;8.40;99.90
3912;DHT22;1971;51.778;10.330;2023-03-13T10:11:20;8.60;99.90
3912;DHT22;1971;51.778;10.330;2023-03-13T10:14:01;8.40;99.90
3912;DHT22;1971;51.778;10.330;2023-03-13T10:16:39;8.70;99.90
3912;DHT22;1971;51.778;10.330;2023-03-13T10:19:15;8.80;99.90
3912;DHT22;1971;51.778;10.330;2023-03-13T10:21:48;8.70;99.90
3912;DHT22;1971;51.778;10.330;2023-03-13T10:24:29;8.80;99.90
3912;DHT22;1971;51.778;10.330;2023-03-13T10:27:01;8.70;99.90
3912;DHT22;1971;51.778;10.330;2023-03-13T10:29:33;8.90;99.90
3912;DHT22;1971;51.778;10.330;2023-03-13T10:32:06;8.70;99.90
3912;DHT22;1971;51.778;10.330;2023-03-13T10:34:52;9.00;99.90
3912;DHT22;1971;51.778;10.330;2023-03-13T10:37:25;9.10;99.90
3912;DHT22;1971;51.778;10.330;2023-03-13T10:40:11;9.00;99.90
3912;DHT22;1971;51.778;10.330;2023-03-13T10:42:43;9.10;99.90
3912;DHT22;1971;51.778;10.330;2023-03-13T10:45:18;8.90;99.90
3912;DHT22;1971;51.778;10.330;2023-03-13T10:47:56;9.00;99.90
3912;DHT22;1971;51.778;10.330;2023-03-13T10:50:33;9.10;99.90
3912;DHT22;1971;51.778;10.330;2023-03-13T10:53:22;9.10;99.90
3912;DHT22;1971;51.778;10.330;2023-03-13T10:55:53;9.10;99.90
3912;DHT22;1971;51.778;10.330;2023-03-13T10:58:29;9.10;99.90
3912;DHT22;1971;51.778;10.330;2023-03-13T11:01:19;9.10;99.90
3912;DHT22;1971;51.778;10.330;2023-03-13T11:03:52;9.10;99.90
3912;DHT22;1971;51.778;10.330;2023-03-13T11:06:27;9.10;99.90
3912;DHT22;1971;51.778;10.330;2023-03-13T11:09:04;9.30;99.90
3912;DHT22;1971;51.778;10.330;2023-03-13T11:11:45;9.30;99.90
3912;DHT22;1971;51.778;10.330;2023-03-13T11:14:18;9.30;99.90
3912;DHT22;1971;51.778;10.330;2023-03-13T11:16:54;9.30;99.90
3912;DHT22;1971;51.778;10.330;2023-03-13T11:19:34;9.30;99.90
3912;DHT22;1971;51.778;10.330;2023-03-13T11:22:22;9.40;99.90
3912;DHT22;1971;51.778;10.330;2023-03-13T11:25:03;9.30;99.90
3912;DHT22;1971;51.778;10.330;2023-03-13T11:27:37;9.40;99.90
3912;DHT22;1971;51.778;10.330;2023-03-13T11:30:22;9.40;99.90
3912;DHT22;1971;51.778;10.330;2023-03-13T11:33:00;9.60;99.90
3912;DHT22;1971;51.778;10.330;2023-03-13T11:35:41;9.60;99.90
3912;DHT22;1971;51.778;10.330;2023-03-13T11:38:17;9.60;99.90
3912;DHT22;1971;51.778;10.330;2023-03-13T11:40:55;9.50;99.90
3912;DHT22;1971;51.778;10.330;2023-03-13T11:43:41;9.50;99.90
3912;DHT22;1971;51.778;10.330;2023-03-13T11:46:24;9.50;99.90
3912;DHT22;1971;51.778;10.330;2023-03-13T11:52:15;9.70;99.90
3912;DHT22;1971;51.778;10.330;2023-03-13T11:55:02;9.70;99.90
3912;DHT22;1971;51.778;10.330;2023-03-13T11:57:42;9.60;99.90
3912;DHT22;1971;51.778;10.330;2023-03-13T12:00:20;9.70;99.90
3912;DHT22;1971;51.778;10.330;2023-03-13T12:02:55;9.80;99.90
3912;DHT22;1971;51.778;10.330;2023-03-13T12:05:29;9.80;99.90
3912;DHT22;1971;51.778;10.330;2023-03-13T12:08:09;9.80;99.90
3912;DHT22;1971;51.778;10.330;2023-03-13T12:10:45;9.90;99.90
3912;DHT22;1971;51.778;10.330;2023-03-13T12:13:20;9.90;99.90
3912;DHT22;1971;51.778;10.330;2023-03-13T12:15:55;10.00;99.90
3912;DHT22;1971;51.778;10.330;2023-03-13T12:18:30;10.00;99.90
3912;DHT22;1971;51.778;10.330;2023-03-13T12:21:10;10.10;99.90
3912;DHT22;1971;51.778;10.330;2023-03-13T12:23:44;10.00;99.90
3912;DHT22;1971;51.778;10.330;2023-03-13T12:26:18;10.00;99.90
3912;DHT22;1971;51.778;10.330;2023-03-13T12:28:56;10.00;99.90
3912;DHT22;1971;51.778;10.330;2023-03-13T12:31:32;10.10;99.90
3912;DHT22;1971;51.778;10.330;2023-03-13T12:34:08;10.30;99.90
3912;DHT22;1971;51.778;10.330;2023-03-13T12:36:47;10.20;99.90
3912;DHT22;1971;51.778;10.330;2023-03-13T12:39:25;10.20;99.90
3912;DHT22;1971;51.778;10.330;2023-03-13T12:42:12;10.20;99.90
3912;DHT22;1971;51.778;10.330;2023-03-13T12:44:45;10.20;99.90
3912;DHT22;1971;51.778;10.330;2023-03-13T12:47:20;10.30;99.90
3912;DHT22;1971;51.778;10.330;2023-03-13T12:50:15;10.40;99.90
3912;DHT22;1971;51.778;10.330;2023-03-13T12:53:12;10.40;99.90
3912;DHT22;1971;51.778;10.330;2023-03-13T12:55:58;10.60;99.90
3912;DHT22;1971;51.778;10.330;2023-03-13T12:58:45;10.90;99.90
3912;DHT22;1971;51.778;10.330;2023-03-13T13:01:26;10.80;99.90
3912;DHT22;1971;51.778;10.330;2023-03-13T13:04:00;10.90;99.90
3912;DHT22;1971;51.778;10.330;2023-03-13T13:06:49;10.80;99.90
3912;DHT22;1971;51.778;10.330;2023-03-13T13:09:25;10.80;99.90
3912;DHT22;1971;51.778;10.330;2023-03-13T13:11:59;10.80;99.90
3912;DHT22;1971;51.778;10.330;2023-03-13T13:14:55;10.80;99.90
3912;DHT22;1971;51.778;10.330;2023-03-13T13:17:44;10.80;99.90
3912;DHT22;1971;51.778;10.330;2023-03-13T13:20:35;10.90;99.90
3912;DHT22;1971;51.778;10.330;2023-03-13T13:23:26;10.90;99.90
3912;DHT22;1971;51.778;10.330;2023-03-13T13:32:35;11.00;99.90
3912;DHT22;1971;51.778;10.330;2023-03-13T13:38:28;11.10;99.90
3912;DHT22;1971;51.778;10.330;2023-03-13T13:46:56;11.00;99.90
3912;DHT22;1971;51.778;10.330;2023-03-13T13:49:51;10.90;99.90
3912;DHT22;1971;51.778;10.330;2023-03-13T13:52:37;10.70;99.90
3912;DHT22;1971;51.778;10.330;2023-03-13T13:55:41;10.70;99.90
3912;DHT22;1971;51.778;10.330;2023-03-13T13:58:13;10.70;99.90
3912;DHT22;1971;51.778;10.330;2023-03-13T14:00:51;10.70;99.90
3912;DHT22;1971;51.778;10.330;2023-03-13T14:03:23;10.70;99.90
3912;DHT22;1971;51.778;10.330;2023-03-13T14:06:00;10.80;99.90
3912;DHT22;1971;51.778;10.330;2023-03-13T14:08:32;10.70;99.90
3912;DHT22;1971;51.778;10.330;2023-03-13T14:11:18;10.70;99.90
3912;DHT22;1971;51.778;10.330;2023-03-13T14:14:10;10.70;99.90
3912;DHT22;1971;51.778;10.330;2023-03-13T14:16:43;10.50;99.90
3912;DHT22;1971;51.778;10.330;2023-03-13T14:19:22;10.40;99.90
3912;DHT22;1971;51.778;10.330;2023-03-13T14:22:04;10.30;99.90
3912;DHT22;1971;51.778;10.330;2023-03-13T14:24:34;10.30;99.90
3912;DHT22;1971;51.778;10.330;2023-03-13T14:27:13;10.40;99.90
3912;DHT22;1971;51.778;10.330;2023-03-13T14:29:58;10.40;99.90
3912;DHT22;1971;51.778;10.330;2023-03-13T14:32:29;10.50;99.90
3912;DHT22;1971;51.778;10.330;2023-03-13T14:34:59;10.60;99.90
3912;DHT22;1971;51.778;10.330;2023-03-13T14:37:36;10.60;99.90
3912;DHT22;1971;51.778;10.330;2023-03-13T14:40:19;10.60;99.90
3912;DHT22;1971;51.778;10.330;2023-03-13T14:42:51;10.60;99.90
3912;DHT22;1971;51.778;10.330;2023-03-13T14:45:28;10.60;99.90
3912;DHT22;1971;51.778;10.330;2023-03-13T14:48:02;10.70;99.90
3912;DHT22;1971;51.778;10.330;2023-03-13T14:50:33;10.80;99.90
3912;DHT22;1971;51.778;10.330;2023-03-13T14:53:15;10.80;99.90
3912;DHT22;1971;51.778;10.330;2023-03-13T14:55:47;10.80;99.90
3912;DHT22;1971;51.778;10.330;2023-03-13T14:58:26;10.80;99.90
3912;DHT22;1971;51.778;10.330;2023-03-13T15:00:57;10.70;99.90
3912;DHT22;1971;51.778;10.330;2023-03-13T15:03:30;10.80;99.90
3912;DHT22;1971;51.778;10.330;2023-03-13T15:06:17;10.60;99.90
3912;DHT22;1971;51.778;10.330;2023-03-13T15:09:12;10.70;99.90
3912;DHT22;1971;51.778;10.330;2023-03-13T15:11:52;10.70;99.90
3912;DHT22;1971;51.778;10.330;2023-03-13T15:14:35;10.70;99.90
3912;DHT22;1971;51.778;10.330;2023-03-13T15:17:12;10.70;99.90
3912;DHT22;1971;51.778;10.330;2023-03-13T15:19:47;10.70;99.90
3912;DHT22;1971;51.778;10.330;2023-03-13T15:22:20;10.80;99.90
3912;DHT22;1971;51.778;10.330;2023-03-13T15:24:57;10.80;99.90
3912;DHT22;1971;51.778;10.330;2023-03-13T15:27:34;10.90;99.90
3912;DHT22;1971;51.778;10.330;2023-03-13T15:30:06;10.90;99.90
3912;DHT22;1971;51.778;10.330;2023-03-13T15:32:38;10.80;99.90
3912;DHT22;1971;51.778;10.330;2023-03-13T15:35:22;10.80;99.90
3912;DHT22;1971;51.778;10.330;2023-03-13T15:37:53;10.70;99.90
3912;DHT22;1971;51.778;10.330;2023-03-13T15:40:27;10.60;99.90
3912;DHT22;1971;51.778;10.330;2023-03-13T15:42:57;10.70;99.90
3912;DHT22;1971;51.778;10.330;2023-03-13T15:45:28;10.70;99.90
3912;DHT22;1971;51.778;10.330;2023-03-13T15:47:59;10.70;99.90
3912;DHT22;1971;51.778;10.330;2023-03-13T15:50:30;10.60;99.90
3912;DHT22;1971;51.778;10.330;2023-03-13T15:52:59;10.60;99.90
3912;DHT22;1971;51.778;10.330;2023-03-13T15:55:32;10.60;99.90
3912;DHT22;1971;51.778;10.330;2023-03-13T15:58:02;10.50;99.90
3912;DHT22;1971;51.778;10.330;2023-03-13T16:00:33;10.50;99.90
3912;DHT22;1971;51.778;10.330;2023-03-13T16:03:03;10.50;99.90
3912;DHT22;1971;51.778;10.330;2023-03-13T16:05:33;10.50;99.90
3912;DHT22;1971;51.778;10.330;2023-03-13T16:08:03;10.50;99.90
3912;DHT22;1971;51.778;10.330;2023-03-13T16:10:36;10.50;99.90
3912;DHT22;1971;51.778;10.330;2023-03-13T16:13:09;10.40;99.90
3912;DHT22;1971;51.778;10.330;2023-03-13T16:15:39;10.40;99.90
3912;DHT22;1971;51.778;10.330;2023-03-13T16:18:13;10.30;99.90
3912;DHT22;1971;51.778;10.330;2023-03-13T16:20:45;10.30;99.90
3912;DHT22;1971;51.778;10.330;2023-03-13T16:23:15;10.20;99.90
3912;DHT22;1971;51.778;10.330;2023-03-13T16:25:48;10.30;99.90
3912;DHT22;1971;51.778;10.330;2023-03-13T16:28:18;10.30;99.90
3912;DHT22;1971;51.778;10.330;2023-03-13T16:30:48;10.20;99.90
3912;DHT22;1971;51.778;10.330;2023-03-13T16:33:18;10.20;99.90
3912;DHT22;1971;51.778;10.330;2023-03-13T16:35:49;10.30;99.90
3912;DHT22;1971;51.778;10.330;2023-03-13T16:38:20;10.30;99.90
3912;DHT22;1971;51.778;10.330;2023-03-13T16:40:53;10.20;99.90
3912;DHT22;1971;51.778;10.330;2023-03-13T16:43:23;10.30;99.90
3912;DHT22;1971;51.778;10.330;2023-03-13T16:45:53;10.20;99.90
3912;DHT22;1971;51.778;10.330;2023-03-13T16:48:23;10.30;99.90
3912;DHT22;1971;51.778;10.330;2023-03-13T16:50:53;10.30;99.90
3912;DHT22;1971;51.778;10.330;2023-03-13T16:53:23;10.30;99.90
3912;DHT22;1971;51.778;10.330;2023-03-13T16:55:56;10.20;99.90
3912;DHT22;1971;51.778;10.330;2023-03-13T16:58:26;10.30;99.90
3912;DHT22;1971;51.778;10.330;2023-03-13T17:00:56;10.30;99.90
3912;DHT22;1971;51.778;10.330;2023-03-13T17:03:32;10.30;99.90
3912;DHT22;1971;51.778;10.330;2023-03-13T17:06:02;10.20;99.90
3912;DHT22;1971;51.778;10.330;2023-03-13T17:08:32;10.20;99.90
3912;DHT22;1971;51.778;10.330;2023-03-13T17:11:09;10.30;99.90